< Typhoon 195713 1957 Season Typhoon 195715 >
Typhoon 195714 (FAYE)
General InformationTrack Information on Google Maps || Disaster Info.ResourceGoogle EarthGE AnimationAtom FeedGeoJSON
Detalied Best Track (Time Zone = UTC)
Year Month Day Hour Lat. Long. Pressure (hPa) Wind (kt) Class Image Chart
1957 9 17 18 9.7 147.2 1008 0 2 -- Chart
1957 9 18 00 10.1 146.4 980 0 9 -- Chart
1957 9 18 06 10.7 145.5 980 0 9 -- Chart
1957 9 18 12 10.9 144.4 970 0 9 -- Chart
1957 9 18 18 11.3 144.0 955 0 9 -- Chart
1957 9 19 00 11.8 143.3 940 0 9 -- Chart
1957 9 19 06 12.2 142.5 935 0 9 -- Chart
1957 9 19 12 12.8 141.7 935 0 9 -- Chart
1957 9 19 18 13.3 140.3 935 0 9 -- Chart
1957 9 20 00 13.6 139.4 935 0 9 -- Chart
1957 9 20 06 14.3 137.0 930 0 9 -- Chart
1957 9 20 12 14.8 135.4 950 0 9 -- Chart
1957 9 20 18 15.6 133.9 960 0 9 -- Chart
1957 9 21 00 16.2 132.6 975 0 9 -- Chart
1957 9 21 06 16.6 131.3 975 0 9 -- Chart
1957 9 21 12 17.0 130.0 980 0 9 -- Chart
1957 9 21 18 17.7 129.0 980 0 9 -- Chart
1957 9 22 00 18.2 128.0 990 0 9 -- Chart
1957 9 22 06 18.6 127.1 995 0 9 -- Chart
1957 9 22 12 19.0 126.2 995 0 9 -- Chart
1957 9 22 18 19.4 125.3 995 0 9 -- Chart
1957 9 23 00 19.5 125.0 995 0 9 -- Chart
1957 9 23 06 19.6 124.6 995 0 9 -- Chart
1957 9 23 12 19.6 124.3 995 0 9 -- Chart
1957 9 23 18 19.7 124.0 995 0 9 -- Chart
1957 9 24 00 20.0 123.4 995 0 9 -- Chart
1957 9 24 06 20.5 122.8 990 0 9 -- Chart
1957 9 24 12 21.3 122.8 985 0 9 -- Chart
1957 9 24 18 22.0 123.1 980 0 9 -- Chart
1957 9 25 00 22.8 123.6 975 0 9 -- Chart
1957 9 25 06 23.7 123.8 960 0 9 -- Chart
1957 9 25 12 24.7 124.9 950 0 9 -- Chart
1957 9 25 18 25.7 126.0 950 0 9 -- Chart
1957 9 26 00 26.6 127.6 955 0 9 -- Chart
1957 9 26 06 27.8 130.2 955 0 9 -- Chart
1957 9 26 12 29.4 133.1 965 0 9 -- Chart
1957 9 26 18 30.8 135.9 970 0 9 -- Chart
1957 9 27 00 32.5 139.5 995 0 9 -- Chart
1957 9 27 06 33.9 143.2 1000 0 9 -- Chart
1957 9 27 12 35.0 145.0 1000 0 9 -- Chart
1957 9 27 18 35.0 149.0 1000 0 6 -- Chart
1957 9 28 00 36.0 152.0 1000 0 6 -- Chart
1957 9 28 06 38.9 156.1 1002 0 6 -- Chart
1957 9 28 12 40.8 158.0 1002 0 6 -- Chart
1957 9 28 18 42.0 162.0 1004 0 6 -- Chart
1957 9 29 00 40.0 165.4 990 0 6 -- Chart
1957 9 29 06 38.9 167.0 994 0 6 -- Chart
1957 9 29 12 38.0 169.0 996 0 6 -- Chart
1957 9 29 18 37.0 173.0 1000 0 6 -- Chart
1957 9 30 00 39.3 175.3 992 0 6 -- Chart
1957 9 30 06 39.0 175.0 998 0 6 -- Chart
1957 9 30 12 39.3 177.0 998 0 6 -- Chart
1957 9 30 18 39.0 180.0 1000 0 6 -- Chart
1957 10 1 00 40.8 185.0 998 0 6 -- Chart
Japan Meteorological Agency Best Track Data | Correction Date : 1991-07-16
< Typhoon 195713 1957 Season Typhoon 195715 >

Help